Bolivar, Texas
Current Conditions -  °F | °C
As of 2:52 AM on Sunday 23 Nov 2014 (Local Time) from KGLS Reporting Station
Clear Clear  
Wind Chill: 62°   Ceiling: Unl
Heat Index: 62°   Visibility: 9mi
Dew Point: 61°   Wind: 5mph
Humidity: 96%   Direction: 160°SSE
Pressure: 29.67"   Gusts: NA
Location:  29.4387°N, 94.6622°W
Report Text: KGLS 230852Z AUTO 16004KT 9SM CLR 17/16 A2967 RMK AO2 SLP046 60035 T01670161 55040
Loading
Personal Weather Stations






























Interactive Weather Map New forecast layout! Learn more

10-Day Weather Forecast

Advertisements
Track Severe Weather on mobile